Time;durP1;ratioP1;P1;durP2;ratioP2;P2;SDS_P1;SDS_P2;PMS_P1;PMS_P2;Temp;Humidity;BMP_temperature;BMP_pressure;BME280_temperature;BME280_humidity;BME280_pressure;Samples;Min_cycle;Max_cycle;Signal;HPM_P1;HPM_P2
2024/02/28 00:00:56;;;;;;;5.20;3.30;;;;;;;;;;6204934;23;20170;-81
2024/02/28 00:03:31;;;;;;;3.93;3.20;;;;;;;;;;6204625;23;20172;-82
2024/02/28 00:05:59;;;;;;;4.47;3.17;;;;;;;;;;6204858;23;20174;-82
2024/02/28 00:08:27;;;;;;;4.50;3.10;;;;;;;;;;6178849;23;20164;-82
2024/02/28 00:10:58;;;;;;;3.20;2.90;;;;;;;;;;6178941;23;20215;-82
2024/02/28 00:13:27;;;;;;;4.27;3.10;;;;;;;;;;6204928;23;20197;-82
2024/02/28 00:15:55;;;;;;;3.60;3.17;;;;;;;;;;6153720;23;20197;-82
2024/02/28 00:18:26;;;;;;;3.67;3.10;;;;;;;;;;6204167;23;20162;-82
2024/02/28 00:20:59;;;;;;;4.17;3.10;;;;;;;;;;6205438;23;20163;-82
2024/02/28 00:23:35;;;;;;;4.50;2.90;;;;;;;;;;6204498;23;20147;-82
2024/02/28 00:26:07;;;;;;;3.67;2.87;;;;;;;;;;6204711;23;20176;-82
2024/02/28 00:28:41;;;;;;;3.93;3.10;;;;;;;;;;6178907;23;20235;-82
2024/02/28 00:31:11;;;;;;;4.43;3.10;;;;;;;;;;6204203;23;20185;-82
2024/02/28 00:33:39;;;;;;;5.23;2.97;;;;;;;;;;6177353;23;20188;-82
2024/02/28 00:36:06;;;;;;;3.07;2.73;;;;;;;;;;6204040;23;20167;-81
2024/02/28 00:38:33;;;;;;;3.37;2.60;;;;;;;;;;6204059;23;20160;-82
2024/02/28 00:41:01;;;;;;;5.73;3.10;;;;;;;;;;6179652;23;20242;-82
2024/02/28 00:43:33;;;;;;;6.23;3.10;;;;;;;;;;6203568;23;20159;-82
2024/02/28 00:46:03;;;;;;;2.90;2.60;;;;;;;;;;6204168;23;20142;-81
2024/02/28 00:48:34;;;;;;;5.53;2.93;;;;;;;;;;6178120;23;20178;-82
2024/02/28 00:51:06;;;;;;;4.90;2.90;;;;;;;;;;6204300;23;20183;-82
2024/02/28 00:53:34;;;;;;;4.80;2.77;;;;;;;;;;6203300;23;20192;-82
2024/02/28 00:56:04;;;;;;;4.57;2.70;;;;;;;;;;6205022;23;20210;-82
2024/02/28 00:58:38;;;;;;;3.20;2.60;;;;;;;;;;6180573;23;20215;-81
2024/02/28 01:01:07;;;;;;;4.63;3.13;;;;;;;;;;6205775;23;20147;-82
2024/02/28 01:03:37;;;;;;;5.70;2.80;;;;;;;;;;6206002;23;20160;-82
2024/02/28 01:06:06;;;;;;;4.57;2.90;;;;;;;;;;6180965;23;20230;-82
2024/02/28 01:08:35;;;;;;;4.53;3.00;;;;;;;;;;6206280;23;20178;-82
2024/02/28 01:11:04;;;;;;;6.50;2.97;;;;;;;;;;6180772;23;20184;-82
2024/02/28 01:13:35;;;;;;;5.30;2.80;;;;;;;;;;6205887;23;20189;-82
2024/02/28 01:16:04;;;;;;;3.47;2.63;;;;;;;;;;6180419;23;20163;-82
2024/02/28 01:18:33;;;;;;;4.03;2.60;;;;;;;;;;6205744;23;20166;-82
2024/02/28 01:21:03;;;;;;;5.00;2.70;;;;;;;;;;6206163;23;20159;-82
2024/02/28 01:23:31;;;;;;;4.93;2.80;;;;;;;;;;6205688;23;20156;-82
2024/02/28 01:25:58;;;;;;;4.80;2.87;;;;;;;;;;6155168;23;20187;-82
2024/02/28 01:28:32;;;;;;;3.97;2.53;;;;;;;;;;6205646;23;20238;-82
2024/02/28 01:31:00;;;;;;;3.73;2.50;;;;;;;;;;6154157;23;20637;-82
2024/02/28 01:33:28;;;;;;;4.10;2.80;;;;;;;;;;6205640;23;20652;-81
2024/02/28 01:35:58;;;;;;;4.37;2.60;;;;;;;;;;6179928;23;20230;-82
2024/02/28 01:38:26;;;;;;;3.47;2.67;;;;;;;;;;6204933;23;20221;-81
2024/02/28 01:41:04;;;;;;;3.00;2.27;;;;;;;;;;6204861;23;20221;-82
2024/02/28 01:43:35;;;;;;;3.03;2.33;;;;;;;;;;6179758;23;20167;-82
2024/02/28 01:46:12;;;;;;;6.07;3.20;;;;;;;;;;6205325;23;20175;-82
2024/02/28 01:48:44;;;;;;;3.73;2.70;;;;;;;;;;6204789;23;20229;-82
2024/02/28 01:51:14;;;;;;;5.13;2.70;;;;;;;;;;6205132;23;20149;-82
2024/02/28 01:53:44;;;;;;;5.10;2.97;;;;;;;;;;6179415;23;20209;-82
2024/02/28 01:56:18;;;;;;;4.43;2.73;;;;;;;;;;6205614;23;20165;-82
2024/02/28 01:58:48;;;;;;;4.03;3.07;;;;;;;;;;6205445;23;20148;-82
2024/02/28 02:01:16;;;;;;;4.57;2.87;;;;;;;;;;6205107;23;20159;-82
2024/02/28 02:03:51;;;;;;;4.43;3.10;;;;;;;;;;6205751;23;20149;-82
2024/02/28 02:06:22;;;;;;;4.20;2.90;;;;;;;;;;6155229;23;20194;-81
2024/02/28 02:08:50;;;;;;;5.20;3.10;;;;;;;;;;6203873;23;20239;-82
2024/02/28 02:11:21;;;;;;;4.90;3.07;;;;;;;;;;6179185;23;20171;-82
2024/02/28 02:13:51;;;;;;;4.43;2.90;;;;;;;;;;6205417;23;20177;-82
2024/02/28 02:16:27;;;;;;;4.37;2.63;;;;;;;;;;6205796;23;20147;-82
2024/02/28 02:18:59;;;;;;;6.00;3.07;;;;;;;;;;6180074;23;20166;-82
2024/02/28 02:21:42;;;;;;;3.73;2.93;;;;;;;;;;6180656;23;20191;-82
2024/02/28 02:24:12;;;;;;;4.07;2.80;;;;;;;;;;6180350;23;20159;-82
2024/02/28 02:27:04;;;;;;;3.77;3.10;;;;;;;;;;6205915;23;20173;-82
2024/02/28 02:29:36;;;;;;;4.40;2.70;;;;;;;;;;6179403;23;20173;-82
2024/02/28 02:32:06;;;;;;;5.03;3.00;;;;;;;;;;6205079;23;20157;-82
2024/02/28 02:34:35;;;;;;;4.70;3.20;;;;;;;;;;6205031;23;20174;-82
2024/02/28 02:37:08;;;;;;;6.57;3.10;;;;;;;;;;6204749;23;20184;-82
2024/02/28 02:39:42;;;;;;;5.03;2.77;;;;;;;;;;6205398;23;20138;-82
2024/02/28 02:42:14;;;;;;;5.37;3.33;;;;;;;;;;6205748;23;20174;-82
2024/02/28 02:44:46;;;;;;;5.87;3.40;;;;;;;;;;6205619;23;20182;-81
2024/02/28 02:47:20;;;;;;;4.53;2.80;;;;;;;;;;6206066;23;20151;-82
2024/02/28 02:49:49;;;;;;;5.93;3.30;;;;;;;;;;6155461;23;20225;-82
2024/02/28 02:52:20;;;;;;;5.57;3.13;;;;;;;;;;6179652;23;20186;-82
2024/02/28 02:54:50;;;;;;;4.77;3.00;;;;;;;;;;6155586;23;20170;-82
2024/02/28 02:57:20;;;;;;;3.80;3.03;;;;;;;;;;6180738;23;20189;-82
2024/02/28 02:59:48;;;;;;;4.30;3.27;;;;;;;;;;6180039;23;20191;-82
2024/02/28 03:02:16;;;;;;;4.83;2.90;;;;;;;;;;6155438;23;20162;-82
2024/02/28 03:04:51;;;;;;;4.47;3.13;;;;;;;;;;6204791;23;20218;-82
2024/02/28 03:07:19;;;;;;;6.23;3.20;;;;;;;;;;6205943;23;20183;-82
2024/02/28 03:09:47;;;;;;;7.53;3.27;;;;;;;;;;6179374;23;20167;-82
2024/02/28 03:12:21;;;;;;;4.43;2.97;;;;;;;;;;6205884;23;20182;-82
2024/02/28 03:14:50;;;;;;;6.50;3.07;;;;;;;;;;6179582;23;20218;-82
2024/02/28 03:17:21;;;;;;;4.73;3.03;;;;;;;;;;6156762;23;20169;-82
2024/02/28 03:19:48;;;;;;;4.03;2.90;;;;;;;;;;6179578;23;20186;-81
2024/02/28 03:22:18;;;;;;;6.27;3.10;;;;;;;;;;6179063;23;20177;-81
2024/02/28 03:24:48;;;;;;;5.23;3.00;;;;;;;;;;6179798;23;20170;-82
2024/02/28 03:27:16;;;;;;;5.37;2.83;;;;;;;;;;6180028;23;20169;-81
2024/02/28 03:29:47;;;;;;;5.33;3.07;;;;;;;;;;6180375;23;20166;-82
2024/02/28 03:32:22;;;;;;;6.13;3.33;;;;;;;;;;6205571;23;20142;-82
2024/02/28 03:34:53;;;;;;;3.17;2.83;;;;;;;;;;6205155;23;20162;-82
2024/02/28 03:37:23;;;;;;;4.27;3.13;;;;;;;;;;6180300;23;20166;-82
2024/02/28 03:40:00;;;;;;;6.20;3.00;;;;;;;;;;6180436;23;20139;-82
2024/02/28 03:42:30;;;;;;;4.70;2.63;;;;;;;;;;6205450;23;20209;-82
2024/02/28 03:45:00;;;;;;;5.23;3.00;;;;;;;;;;6155440;23;20185;-82
2024/02/28 03:47:29;;;;;;;4.20;2.97;;;;;;;;;;6204836;23;20158;-82
2024/02/28 03:50:01;;;;;;;5.03;3.00;;;;;;;;;;6179083;23;20707;-82
2024/02/28 03:52:41;;;;;;;5.33;3.17;;;;;;;;;;6204912;23;20177;-82
2024/02/28 03:55:10;;;;;;;6.97;3.10;;;;;;;;;;6204420;23;20146;-81
2024/02/28 03:57:44;;;;;;;5.33;3.53;;;;;;;;;;6205279;23;20139;-82
2024/02/28 04:00:12;;;;;;;4.00;3.57;;;;;;;;;;6154412;23;20180;-82
2024/02/28 04:02:43;;;;;;;6.13;4.10;;;;;;;;;;6178304;23;20177;-83
2024/02/28 04:05:11;;;;;;;4.00;3.53;;;;;;;;;;6154879;23;20198;-82
2024/02/28 04:07:43;;;;;;;4.83;3.97;;;;;;;;;;6206059;23;20214;-82
2024/02/28 04:10:16;;;;;;;4.80;3.30;;;;;;;;;;6205743;23;20202;-82
2024/02/28 04:12:44;;;;;;;5.57;3.60;;;;;;;;;;6179818;23;20201;-82
2024/02/28 04:15:13;;;;;;;4.30;3.40;;;;;;;;;;6180178;23;20225;-82
2024/02/28 04:17:46;;;;;;;5.07;3.50;;;;;;;;;;6181949;23;20207;-82
2024/02/28 04:20:17;;;;;;;5.17;3.50;;;;;;;;;;6205738;23;20190;-82
2024/02/28 04:22:44;;;;;;;5.87;3.70;;;;;;;;;;6179628;23;20174;-82
2024/02/28 04:25:12;;;;;;;4.47;3.47;;;;;;;;;;6204833;23;20170;-82
2024/02/28 04:27:41;;;;;;;7.43;4.27;;;;;;;;;;6180027;23;20586;-82
2024/02/28 04:30:12;;;;;;;7.40;4.40;;;;;;;;;;6204962;23;20153;-82
2024/02/28 04:32:48;;;;;;;6.00;4.20;;;;;;;;;;6181458;23;20170;-83
2024/02/28 04:35:26;;;;;;;5.30;4.53;;;;;;;;;;6183845;23;20142;-82
2024/02/28 04:38:00;;;;;;;7.03;4.30;;;;;;;;;;6181733;23;20645;-82
2024/02/28 04:40:32;;;;;;;7.97;4.13;;;;;;;;;;6207330;23;20142;-82
2024/02/28 04:43:02;;;;;;;6.23;4.03;;;;;;;;;;6182552;23;20166;-82
2024/02/28 04:45:30;;;;;;;8.00;4.37;;;;;;;;;;6180426;23;20155;-82
2024/02/28 04:47:58;;;;;;;6.07;4.73;;;;;;;;;;6180003;23;20625;-82
2024/02/28 04:50:26;;;;;;;8.60;4.90;;;;;;;;;;6206271;23;20206;-82
2024/02/28 04:52:57;;;;;;;7.77;4.97;;;;;;;;;;6183288;23;20190;-82
2024/02/28 04:55:26;;;;;;;10.03;5.23;;;;;;;;;;6181071;23;20176;-83
2024/02/28 04:57:58;;;;;;;6.83;5.20;;;;;;;;;;6183095;23;20146;-82
2024/02/28 05:00:37;;;;;;;11.03;6.13;;;;;;;;;;6208825;23;20151;-83
2024/02/28 05:07:11;;;;;;;6.90;6.20;;;;;;;;;;6155688;23;20214;-82
2024/02/28 05:09:39;;;;;;;8.97;6.83;;;;;;;;;;6180597;23;20173;-82
2024/02/28 05:12:07;;;;;;;8.97;8.07;;;;;;;;;;6207745;23;20159;-81
2024/02/28 05:14:35;;;;;;;10.60;8.47;;;;;;;;;;6183817;23;20190;-83
2024/02/28 05:17:07;;;;;;;9.33;8.40;;;;;;;;;;6184463;23;20182;-82
2024/02/28 05:19:36;;;;;;;10.83;8.83;;;;;;;;;;6182897;23;20189;-83
2024/02/28 05:22:11;;;;;;;10.77;9.67;;;;;;;;;;6183359;23;20162;-83
2024/02/28 05:24:45;;;;;;;11.80;10.37;;;;;;;;;;6183022;23;20173;-82
2024/02/28 05:27:15;;;;;;;13.07;11.60;;;;;;;;;;6208355;23;20170;-82
2024/02/28 05:29:44;;;;;;;12.87;10.87;;;;;;;;;;6159422;23;20206;-82
2024/02/28 05:32:17;;;;;;;13.17;11.83;;;;;;;;;;6182457;23;20213;-83
2024/02/28 05:34:54;;;;;;;14.30;12.20;;;;;;;;;;6205279;23;20182;-82
2024/02/28 05:37:25;;;;;;;13.70;12.27;;;;;;;;;;6206213;23;20177;-83
2024/02/28 05:39:57;;;;;;;15.13;13.30;;;;;;;;;;6182764;23;20165;-83
2024/02/28 05:42:31;;;;;;;15.27;13.67;;;;;;;;;;6159848;23;20162;-83
2024/02/28 05:45:03;;;;;;;16.27;13.53;;;;;;;;;;6199381;23;20174;-83
2024/02/28 05:47:32;;;;;;;15.77;13.97;;;;;;;;;;6180917;23;20181;-83
2024/02/28 05:50:06;;;;;;;16.20;14.27;;;;;;;;;;6207343;23;20257;-83
2024/02/28 05:52:48;;;;;;;14.80;13.30;;;;;;;;;;6183160;23;20186;-83
2024/02/28 05:55:26;;;;;;;16.40;14.57;;;;;;;;;;6183960;23;20241;-83
2024/02/28 05:58:03;;;;;;;16.97;14.73;;;;;;;;;;6185320;23;20209;-83
2024/02/28 06:00:31;;;;;;;18.17;15.27;;;;;;;;;;6182162;23;20162;-83
2024/02/28 06:03:21;;;;;;;17.17;14.70;;;;;;;;;;6188041;23;20177;-83
2024/02/28 06:05:58;;;;;;;18.73;15.30;;;;;;;;;;6181943;23;20170;-82
2024/02/28 06:08:40;;;;;;;19.53;15.90;;;;;;;;;;6207316;23;20154;-82
2024/02/28 06:11:16;;;;;;;18.00;15.93;;;;;;;;;;6156358;23;20177;-83
2024/02/28 06:14:12;;;;;;;17.37;15.20;;;;;;;;;;6182817;23;20209;-83
2024/02/28 06:16:43;;;;;;;17.63;15.73;;;;;;;;;;6206757;23;20173;-82
2024/02/28 06:19:17;;;;;;;18.90;16.13;;;;;;;;;;6181133;23;20193;-83
2024/02/28 06:21:53;;;;;;;18.07;15.77;;;;;;;;;;6182221;23;20173;-83
2024/02/28 06:24:26;;;;;;;20.33;16.77;;;;;;;;;;6157412;23;20173;-83
2024/02/28 06:26:59;;;;;;;19.33;16.53;;;;;;;;;;6206811;23;20229;-83
2024/02/28 06:29:37;;;;;;;18.83;16.03;;;;;;;;;;6159389;23;20142;-82
2024/02/28 06:32:10;;;;;;;17.57;15.67;;;;;;;;;;6178784;23;20240;-82
2024/02/28 06:34:47;;;;;;;18.43;16.30;;;;;;;;;;6160647;23;20211;-83
2024/02/28 06:37:24;;;;;;;19.33;16.57;;;;;;;;;;6181075;23;20249;-82
2024/02/28 06:39:55;;;;;;;18.77;15.60;;;;;;;;;;6182427;23;20174;-83
2024/02/28 06:42:25;;;;;;;19.80;16.40;;;;;;;;;;6157671;23;20174;-83
2024/02/28 06:44:58;;;;;;;17.50;15.57;;;;;;;;;;6181024;23;20170;-82
2024/02/28 06:47:27;;;;;;;18.70;16.70;;;;;;;;;;6180815;23;20162;-82
2024/02/28 06:50:06;;;;;;;18.63;16.33;;;;;;;;;;6183581;23;20202;-82
2024/02/28 06:52:34;;;;;;;19.30;16.00;;;;;;;;;;6181852;23;20162;-82
2024/02/28 06:55:16;;;;;;;20.43;16.60;;;;;;;;;;6206964;23;20185;-82
2024/02/28 06:57:58;;;;;;;18.60;16.07;;;;;;;;;;6183383;23;20166;-82
2024/02/28 07:00:48;;;;;;;18.67;16.67;;;;;;;;;;6208133;23;20158;-82
2024/02/28 07:07:55;;;;;;;18.07;16.13;;;;;;;;;;6146265;23;20200;-83
2024/02/28 07:10:29;;;;;;;19.40;17.27;;;;;;;;;;6121830;23;20238;-83
2024/02/28 07:13:08;;;;;;;19.53;17.23;;;;;;;;;;6147025;23;20231;-83
2024/02/28 07:15:57;;;;;;;19.70;16.87;;;;;;;;;;6147002;23;20180;-83
2024/02/28 07:18:28;;;;;;;20.53;17.30;;;;;;;;;;6123844;23;20156;-82
2024/02/28 07:21:01;;;;;;;20.00;16.60;;;;;;;;;;6123128;23;20184;-83
2024/02/28 07:23:30;;;;;;;18.00;16.10;;;;;;;;;;6146627;23;20179;-83
2024/02/28 07:26:08;;;;;;;19.13;16.50;;;;;;;;;;6147696;23;20132;-82
2024/02/28 07:28:51;;;;;;;17.80;15.90;;;;;;;;;;6147086;23;20152;-83
2024/02/28 07:31:35;;;;;;;18.57;16.53;;;;;;;;;;6147546;23;20191;-83
2024/02/28 07:34:06;;;;;;;19.17;17.07;;;;;;;;;;6121629;23;20208;-82
2024/02/28 07:40:36;;;;;;;18.53;16.53;;;;;;;;;;6172159;23;20161;-83
2024/02/28 07:47:45;;;;;;;17.13;15.37;;;;;;;;;;6210216;23;20141;-83
2024/02/28 07:50:46;;;;;;;17.53;15.73;;;;;;;;;;6188252;23;20178;-84
2024/02/28 07:54:32;;;;;;;17.93;15.57;;;;;;;;;;6091560;23;20369;-84
2024/02/28 08:01:39;;;;;;;18.23;15.63;;;;;;;;;;6091451;23;20164;-83
2024/02/28 09:35:57;;;;;;;15.33;13.80;;;;;;;;;;6228950;22;20181;-78
2024/02/28 09:44:17;;;;;;;15.20;13.70;;;;;;;;;;6203485;22;20688;-86
2024/02/28 09:46:45;;;;;;;16.20;14.50;;;;;;;;;;6216948;23;20197;-88
2024/02/28 09:49:13;;;;;;;15.50;13.93;;;;;;;;;;6215376;23;20184;-87
2024/02/28 09:51:40;;;;;;;15.53;14.00;;;;;;;;;;6215650;23;20169;-89
2024/02/28 09:54:08;;;;;;;16.20;14.60;;;;;;;;;;6190131;23;20194;-89
2024/02/28 09:56:35;;;;;;;16.27;14.67;;;;;;;;;;6215609;23;20166;-90
2024/02/28 09:59:02;;;;;;;15.47;13.87;;;;;;;;;;6215370;23;20631;-90
2024/02/28 10:01:30;;;;;;;15.87;14.27;;;;;;;;;;6213460;23;20169;-90
2024/02/28 10:03:59;;;;;;;16.60;14.90;;;;;;;;;;6214713;23;20620;-91
2024/02/28 10:06:27;;;;;;;15.63;14.03;;;;;;;;;;6213500;23;20170;-90
2024/02/28 10:08:54;;;;;;;16.40;14.73;;;;;;;;;;6213636;23;20184;-90
2024/02/28 10:11:22;;;;;;;18.20;14.77;;;;;;;;;;6215171;23;20173;-88
2024/02/28 10:13:50;;;;;;;17.83;15.90;;;;;;;;;;6190508;23;20193;-86
2024/02/28 10:16:21;;;;;;;16.77;15.00;;;;;;;;;;6227246;23;20189;-86
2024/02/28 10:48:31;;;;;;;15.90;13.47;;;;;;;;;;6218484;22;20212;-89
2024/02/28 10:51:00;;;;;;;14.97;13.17;;;;;;;;;;6216119;23;20239;-89
2024/02/28 10:53:36;;;;;;;15.47;13.73;;;;;;;;;;6189699;23;20170;-89
2024/02/28 10:56:04;;;;;;;15.57;13.60;;;;;;;;;;6165582;23;20165;-89
2024/02/28 10:58:36;;;;;;;15.47;13.63;;;;;;;;;;6189882;23;20241;-89
2024/02/28 11:01:06;;;;;;;15.77;13.43;;;;;;;;;;6189465;23;20208;-89
2024/02/28 11:03:33;;;;;;;15.40;13.43;;;;;;;;;;6189920;23;20154;-88
2024/02/28 11:06:01;;;;;;;15.43;13.83;;;;;;;;;;6190005;23;20640;-87
2024/02/28 11:08:29;;;;;;;15.33;13.73;;;;;;;;;;6190638;23;20171;-88
2024/02/28 11:10:57;;;;;;;15.83;14.13;;;;;;;;;;6195963;23;20193;-87
2024/02/28 11:46:41;;;;;;;19.33;16.93;;;;;;;;;;6172822;23;20238;-94
2024/02/28 11:50:12;;;;;;;17.33;14.30;;;;;;;;;;6171882;23;20169;-94
2024/02/28 11:53:47;;;;;;;15.80;14.20;;;;;;;;;;6172974;23;20649;-94
2024/02/28 11:57:29;;;;;;;;;;;;;;;;;;;;;
2024/02/28 12:16:23;;;;;;;15.93;14.33;;;;;;;;;;6229070;23;20591;-94
2024/02/28 12:23:34;;;;;;;15.20;13.33;;;;;;;;;;6139493;23;20188;-94
2024/02/28 12:26:46;;;;;;;14.23;12.73;;;;;;;;;;6151756;23;20151;-94
2024/02/28 12:34:17;;;;;;;15.07;11.97;;;;;;;;;;6180621;23;20193;-94
2024/02/28 14:48:54;;;;;;;29.07;24.57;;;;;;;;;;6259308;22;20228;-82
2024/02/28 14:51:26;;;;;;;27.70;24.40;;;;;;;;;;6235190;23;20499;-82
2024/02/28 14:53:57;;;;;;;20.17;16.73;;;;;;;;;;6260700;23;20166;-82
2024/02/28 14:56:35;;;;;;;20.80;17.33;;;;;;;;;;6259266;23;20166;-82
2024/02/28 14:59:05;;;;;;;20.37;17.63;;;;;;;;;;6258613;23;20613;-82
2024/02/28 15:01:33;;;;;;;19.20;16.97;;;;;;;;;;6231139;23;20170;-82
2024/02/28 15:04:14;;;;;;;20.70;17.47;;;;;;;;;;6232442;23;20145;-82
2024/02/28 15:06:45;;;;;;;18.97;16.67;;;;;;;;;;6258012;23;20195;-82
2024/02/28 15:09:19;;;;;;;20.70;16.80;;;;;;;;;;6230602;23;20190;-82
2024/02/28 15:11:49;;;;;;;19.60;16.53;;;;;;;;;;6229919;23;20168;-82
2024/02/28 15:14:19;;;;;;;19.63;17.30;;;;;;;;;;6202544;23;20191;-82
2024/02/28 15:16:46;;;;;;;19.87;17.60;;;;;;;;;;6227618;23;20232;-82
2024/02/28 15:19:16;;;;;;;18.77;16.37;;;;;;;;;;6229794;23;20248;-82
2024/02/28 15:21:46;;;;;;;22.10;19.70;;;;;;;;;;6227553;23;20169;-82
2024/02/28 15:24:17;;;;;;;20.40;18.20;;;;;;;;;;6230226;23;20153;-82
2024/02/28 15:26:46;;;;;;;19.07;17.07;;;;;;;;;;6232407;23;20167;-82
2024/02/28 15:29:15;;;;;;;21.63;18.17;;;;;;;;;;6259085;23;20172;-82
2024/02/28 15:31:45;;;;;;;20.70;17.17;;;;;;;;;;6232093;23;20195;-82
2024/02/28 15:34:15;;;;;;;22.00;17.43;;;;;;;;;;6231747;23;20189;-82
2024/02/28 15:36:43;;;;;;;20.17;17.70;;;;;;;;;;6233316;23;20165;-82
2024/02/28 15:39:11;;;;;;;19.50;16.43;;;;;;;;;;6233275;23;20169;-82
2024/02/28 15:41:41;;;;;;;18.83;15.97;;;;;;;;;;6257355;23;20166;-82
2024/02/28 15:44:10;;;;;;;18.20;16.30;;;;;;;;;;6229590;23;20196;-82
2024/02/28 15:46:42;;;;;;;19.03;16.97;;;;;;;;;;6258538;22;20165;-82
2024/02/28 15:49:11;;;;;;;18.30;16.27;;;;;;;;;;6235872;22;20165;-82
2024/02/28 15:51:41;;;;;;;20.97;17.10;;;;;;;;;;6259470;22;20195;-82
2024/02/28 15:54:11;;;;;;;20.80;17.60;;;;;;;;;;6285441;22;20137;-82
2024/02/28 15:56:39;;;;;;;21.80;18.03;;;;;;;;;;6235417;22;20356;-82
2024/02/28 15:59:16;;;;;;;20.63;17.53;;;;;;;;;;6262022;22;20136;-82
2024/02/28 16:01:48;;;;;;;19.90;17.33;;;;;;;;;;6285986;22;20160;-82
2024/02/28 16:04:16;;;;;;;20.23;17.43;;;;;;;;;;6260513;22;20160;-83
2024/02/28 16:06:49;;;;;;;21.20;17.47;;;;;;;;;;6259655;22;20175;-82
2024/02/28 16:09:17;;;;;;;21.07;17.70;;;;;;;;;;6260735;22;20160;-82
2024/02/28 16:11:45;;;;;;;19.87;17.77;;;;;;;;;;6260401;22;20164;-82
2024/02/28 16:14:13;;;;;;;21.83;17.13;;;;;;;;;;6287471;22;20160;-82
2024/02/28 16:16:44;;;;;;;19.03;16.33;;;;;;;;;;6259901;22;20152;-82
2024/02/28 16:19:14;;;;;;;18.80;16.43;;;;;;;;;;6232862;22;20247;-82
2024/02/28 16:21:53;;;;;;;18.30;15.67;;;;;;;;;;6234342;22;20199;-81
2024/02/28 16:24:22;;;;;;;19.40;16.40;;;;;;;;;;6256661;22;20169;-80
2024/02/28 16:26:51;;;;;;;20.00;16.67;;;;;;;;;;6258281;22;20247;-82
2024/02/28 16:29:19;;;;;;;20.70;16.03;;;;;;;;;;6284044;22;20174;-80
2024/02/28 16:31:50;;;;;;;18.33;15.53;;;;;;;;;;6285974;22;20169;-80
2024/02/28 16:34:18;;;;;;;19.37;16.43;;;;;;;;;;6275723;22;20217;-82
2024/02/28 16:36:47;;;;;;;19.43;15.93;;;;;;;;;;6234122;22;20164;-82
2024/02/28 16:39:19;;;;;;;18.90;16.20;;;;;;;;;;6258060;22;20164;-81
2024/02/28 16:41:47;;;;;;;21.80;17.03;;;;;;;;;;6259668;22;20175;-81
2024/02/28 16:44:14;;;;;;;21.20;16.97;;;;;;;;;;6284538;22;20167;-81
2024/02/28 16:46:42;;;;;;;20.47;16.43;;;;;;;;;;6232301;22;20172;-80
2024/02/28 16:49:11;;;;;;;19.10;16.17;;;;;;;;;;6234514;22;20160;-82
2024/02/28 16:51:41;;;;;;;20.47;16.77;;;;;;;;;;6286613;22;20161;-82
2024/02/28 16:54:09;;;;;;;20.73;16.20;;;;;;;;;;6258880;22;20677;-82
2024/02/28 16:56:38;;;;;;;18.33;15.17;;;;;;;;;;6285597;22;20161;-82
2024/02/28 16:59:11;;;;;;;20.97;16.73;;;;;;;;;;6234444;22;20616;-82
2024/02/28 17:01:41;;;;;;;20.17;15.90;;;;;;;;;;6258288;22;20168;-81
2024/02/28 17:04:09;;;;;;;20.33;16.53;;;;;;;;;;6285489;22;20171;-80
2024/02/28 17:06:38;;;;;;;19.57;15.90;;;;;;;;;;6284866;22;20191;-81
2024/02/28 17:09:09;;;;;;;20.63;16.07;;;;;;;;;;6235105;22;20165;-80
2024/02/28 17:11:38;;;;;;;19.27;16.17;;;;;;;;;;6283723;22;20165;-80
2024/02/28 17:14:07;;;;;;;21.20;15.93;;;;;;;;;;6284747;22;20508;-80
2024/02/28 17:16:39;;;;;;;20.60;16.53;;;;;;;;;;6284596;22;20638;-82
2024/02/28 17:19:08;;;;;;;20.63;15.70;;;;;;;;;;6285354;22;20203;-81
2024/02/28 17:21:38;;;;;;;20.37;15.97;;;;;;;;;;6258427;22;20168;-82
2024/02/28 17:24:06;;;;;;;19.53;15.17;;;;;;;;;;6258884;22;20172;-82
2024/02/28 17:26:35;;;;;;;22.83;16.37;;;;;;;;;;6267427;22;20160;-82
2024/02/28 17:29:11;;;;;;;23.53;16.93;;;;;;;;;;6269551;22;20164;-82
2024/02/28 17:31:46;;;;;;;22.33;16.03;;;;;;;;;;6269099;22;20164;-82
2024/02/28 17:34:23;;;;;;;21.13;16.17;;;;;;;;;;6271686;22;20160;-82
2024/02/28 17:36:53;;;;;;;21.90;14.83;;;;;;;;;;6296216;22;20164;-82
2024/02/28 17:39:24;;;;;;;18.60;14.80;;;;;;;;;;6269393;22;20216;-82
2024/02/28 17:41:54;;;;;;;22.20;17.57;;;;;;;;;;6267142;22;20399;-82
2024/02/28 17:44:22;;;;;;;21.93;16.37;;;;;;;;;;6265795;22;20421;-82
2024/02/28 17:46:52;;;;;;;19.97;15.63;;;;;;;;;;6289704;22;20241;-82
2024/02/28 17:49:20;;;;;;;19.47;14.80;;;;;;;;;;6265703;22;20235;-82
2024/02/28 17:51:48;;;;;;;18.77;14.87;;;;;;;;;;6292200;22;20188;-82
2024/02/28 17:54:21;;;;;;;17.03;13.97;;;;;;;;;;6267991;22;20231;-82
2024/02/28 17:56:55;;;;;;;19.40;15.10;;;;;;;;;;6285837;22;20172;-82
2024/02/28 17:59:44;;;;;;;26.30;18.30;;;;;;;;;;6265953;22;20175;-82
2024/02/28 18:02:13;;;;;;;21.03;14.63;;;;;;;;;;6267157;22;20165;-82
2024/02/28 18:04:45;;;;;;;20.17;15.20;;;;;;;;;;6242242;22;20168;-82
2024/02/28 18:07:18;;;;;;;18.10;14.10;;;;;;;;;;6293255;22;20152;-82
2024/02/28 18:09:54;;;;;;;20.73;14.33;;;;;;;;;;6293831;22;20141;-82
2024/02/28 18:12:26;;;;;;;17.87;14.37;;;;;;;;;;6293408;22;20164;-82
2024/02/28 18:14:57;;;;;;;19.60;14.50;;;;;;;;;;6266960;22;20175;-82
2024/02/28 18:17:25;;;;;;;18.17;13.60;;;;;;;;;;6266987;22;20165;-83
2024/02/28 18:19:56;;;;;;;18.73;14.43;;;;;;;;;;6265682;22;20216;-82
2024/02/28 18:22:33;;;;;;;18.13;14.10;;;;;;;;;;6242523;22;20228;-82
2024/02/28 18:25:05;;;;;;;19.80;14.47;;;;;;;;;;6267708;22;20152;-82
2024/02/28 18:27:35;;;;;;;19.90;15.83;;;;;;;;;;6292198;22;20164;-82
2024/02/28 18:30:11;;;;;;;19.77;15.07;;;;;;;;;;6292561;22;20144;-82
2024/02/28 18:32:47;;;;;;;18.63;15.57;;;;;;;;;;6263635;22;20164;-83
2024/02/28 18:35:23;;;;;;;19.17;14.90;;;;;;;;;;6267188;22;20517;-83
2024/02/28 18:37:55;;;;;;;20.57;16.73;;;;;;;;;;6268488;22;20152;-82
2024/02/28 18:40:27;;;;;;;19.90;15.57;;;;;;;;;;6293898;22;20160;-82
2024/02/28 18:42:58;;;;;;;18.33;14.50;;;;;;;;;;6242763;22;20141;-82
2024/02/28 18:45:27;;;;;;;17.40;14.27;;;;;;;;;;6267029;22;20210;-82
2024/02/28 18:48:16;;;;;;;18.27;14.07;;;;;;;;;;6261510;23;20200;-82
2024/02/28 18:50:49;;;;;;;19.67;14.30;;;;;;;;;;6263505;23;20148;-82
2024/02/28 18:53:26;;;;;;;19.60;13.80;;;;;;;;;;6264100;23;20464;-82
2024/02/28 18:55:59;;;;;;;20.03;15.20;;;;;;;;;;6264226;23;20224;-82
2024/02/28 18:58:33;;;;;;;19.63;14.33;;;;;;;;;;6266975;22;20160;-82
2024/02/28 19:01:16;;;;;;;19.63;14.80;;;;;;;;;;6268715;23;20160;-82
2024/02/28 19:03:52;;;;;;;19.97;14.97;;;;;;;;;;6271114;22;20184;-82
2024/02/28 19:06:26;;;;;;;18.00;14.73;;;;;;;;;;6268309;23;20160;-82
2024/02/28 19:08:58;;;;;;;18.83;14.13;;;;;;;;;;6266370;23;20163;-82
2024/02/28 19:11:34;;;;;;;19.47;14.27;;;;;;;;;;6268351;23;20145;-83
2024/02/28 19:14:07;;;;;;;18.93;14.43;;;;;;;;;;6267592;23;20157;-82
2024/02/28 19:16:38;;;;;;;16.83;13.60;;;;;;;;;;6269544;22;20224;-82
2024/02/28 19:19:11;;;;;;;18.40;14.57;;;;;;;;;;6267484;23;20184;-83
2024/02/28 19:21:47;;;;;;;19.10;14.50;;;;;;;;;;6245520;23;20172;-82
2024/02/28 19:24:16;;;;;;;19.23;13.90;;;;;;;;;;6266529;23;20168;-82
2024/02/28 19:27:03;;;;;;;18.77;13.97;;;;;;;;;;6220035;23;20180;-82
2024/02/28 19:29:34;;;;;;;19.27;14.33;;;;;;;;;;6266313;23;20180;-82
2024/02/28 19:32:08;;;;;;;18.53;15.07;;;;;;;;;;6272602;22;20165;-82
2024/02/28 19:34:44;;;;;;;17.70;13.13;;;;;;;;;;6247189;23;20660;-82
2024/02/28 19:37:13;;;;;;;17.60;13.27;;;;;;;;;;6272037;23;20199;-83
2024/02/28 19:39:43;;;;;;;19.00;13.17;;;;;;;;;;6272181;22;20171;-82
2024/02/28 19:42:13;;;;;;;16.37;12.80;;;;;;;;;;6271342;23;20161;-83
2024/02/28 19:44:46;;;;;;;18.53;13.67;;;;;;;;;;6271721;23;20188;-82
2024/02/28 19:47:22;;;;;;;16.93;13.07;;;;;;;;;;6271953;23;20176;-84
2024/02/28 19:49:54;;;;;;;16.90;13.27;;;;;;;;;;6266848;23;20145;-83
2024/02/28 19:52:27;;;;;;;17.03;11.93;;;;;;;;;;6272629;23;20158;-84
2024/02/28 19:54:56;;;;;;;16.87;12.57;;;;;;;;;;6272763;23;20192;-82
2024/02/28 19:57:26;;;;;;;14.37;11.60;;;;;;;;;;6272969;22;20204;-83
2024/02/28 20:00:06;;;;;;;14.63;11.73;;;;;;;;;;6247548;23;20179;-82
2024/02/28 20:02:39;;;;;;;13.70;11.53;;;;;;;;;;6274699;23;20164;-83
2024/02/28 20:05:10;;;;;;;19.70;12.87;;;;;;;;;;6275181;22;20137;-83
2024/02/28 20:07:39;;;;;;;14.37;12.00;;;;;;;;;;6274126;22;20176;-82
2024/02/28 20:10:07;;;;;;;15.37;12.03;;;;;;;;;;6273806;23;20167;-82
2024/02/28 20:12:37;;;;;;;15.60;12.47;;;;;;;;;;6274606;23;20157;-84
2024/02/28 20:15:14;;;;;;;13.93;12.03;;;;;;;;;;6274938;23;20152;-83
2024/02/28 20:18:04;;;;;;;15.67;12.97;;;;;;;;;;6274147;23;20179;-82
2024/02/28 20:20:34;;;;;;;15.50;11.97;;;;;;;;;;6274724;22;20216;-82
2024/02/28 20:23:05;;;;;;;14.40;11.13;;;;;;;;;;6274507;23;20148;-82
2024/02/28 20:25:36;;;;;;;13.97;11.17;;;;;;;;;;6274176;23;20219;-83
2024/02/28 20:28:06;;;;;;;14.67;11.53;;;;;;;;;;6267339;23;20149;-83
2024/02/28 20:30:37;;;;;;;15.63;11.67;;;;;;;;;;6274870;22;20204;-83
2024/02/28 20:33:12;;;;;;;14.17;11.37;;;;;;;;;;6274790;23;20133;-83
2024/02/28 20:35:54;;;;;;;14.87;11.53;;;;;;;;;;6273065;22;20171;-81
2024/02/28 20:38:25;;;;;;;14.10;10.93;;;;;;;;;;6273848;23;20244;-83